Nearby METAR Reports

 

KEQY - Monroe, North Carolina, USA
Distance from station: S 11mi, 18km
Updated: Thu, 05/28/2015 7:01am EDT
Mist, Clear
Mist, Clear
 Wind from calm
Wind: Calm
Temperature: 66°F , 19°C
Dew Point: 64°F , 18°C
Humidity: 94%
Barometer: 30.21 inHg , 1023 hPa
Summary: Mist
Clouds: Clear
Visibility: 4 miles , 6 km
2015/05/28 11:01 KEQY 281101Z AUTO 00000KT 4SM BR CLR 19/18 A3021 RMK AO2 T01890183
KJQF - Concord Reg Arpt, North Carolina, USA
Distance from station: NNW 16mi, 25km
Updated: Thu, 05/28/2015 7:15am EDT
Clear
Clear
 Wind from calm
Wind: Calm
Temperature: 68°F , 20°C
Dew Point: 66°F , 19°C
Humidity: 94%
Barometer: 30.25 inHg , 1024.4 hPa
Clouds: Clear
Visibility: 7 miles , 11 km
2015/05/28 11:15 KJQF 281115Z AUTO 00000KT 7SM CLR 20/19 A3025 RMK AO2
 
KCLT - Charlotte, North Carolina, USA
Distance from station: W 20mi, 33km
Updated: Thu, 05/28/2015 6:52am EDT
Overcast
Overcast
 Wind from S
Wind: S 3 mph , 6 km/h
Temperature: 68°F , 20°C
Dew Point: 66°F , 19°C
Humidity: 94%
Barometer: 30.22 inHg , 1023.4 hPa
Clouds: Overcast
Visibility: 10 miles , 16 km
Cloud details: Overcast 25000 ft
2015/05/28 10:52 KCLT 281052Z 18003KT 10SM OVC250 20/19 A3022 RMK AO2 SLP225 T02000189 $
KUZA - Rock Hill, South Carolina, USA
Distance from station: WSW 29mi, 47km
Updated: Thu, 05/28/2015 6:54am EDT
Mist, Clear
Mist, Clear
 Wind from SW
Wind: SW 3 mph , 6 km/h
Temperature: 66°F , 19°C
Dew Point: 66°F , 19°C
Humidity: 100%
Barometer: 30.22 inHg , 1023.4 hPa
Summary: Mist
Clouds: Clear
Visibility: 4 miles , 6 km
2015/05/28 10:54 KUZA 281054Z AUTO 22003KT 4SM BR CLR 19/19 A3022 RMK AO2 SLP223 T01890189
 
KVUJ - Albemarle Stanly, North Carolina, USA
Distance from station: NE 30mi, 48km
Updated: Thu, 05/28/2015 7:35am EDT
Fog, Overcast
Fog, Overcast
 Wind from calm
Wind: Calm
Temperature: 68°F , 20°C
Dew Point: 68°F , 20°C
Humidity: 100%
Barometer: 30.26 inHg , 1024.7 hPa
Summary: Fog
Clouds: Overcast
Visibility: less than 1/4 mile , 2 km
Cloud details: Overcast 300 ft
2015/05/28 11:35 KVUJ 281135Z AUTO 00000KT M1/4SM FG OVC003 20/20 A3026 RMK AO2 T01950195
KAFP - Wadesboro/Anson, North Carolina, USA
Distance from station: ESE 31mi, 50km
Updated: Thu, 05/28/2015 7:35am EDT
Fog, Overcast
Fog, Overcast
 Wind from calm
Wind: Calm
Temperature: 66°F , 19°C
Dew Point: 64°F , 18°C
Humidity: 94%
Barometer: 30.22 inHg , 1023.4 hPa
Summary: Fog
Clouds: Overcast
Visibility: 1/4 mile , 2 km
Cloud details: Overcast 100 ft
2015/05/28 11:35 KAFP 281135Z AUTO 00000KT 1/4SM FG OVC001 19/18 A3022 RMK AO2 T01900183
 
KAKH - Gastonia, North Carolina, USA
Distance from station: W 31mi, 51km
Updated: Thu, 05/28/2015 7:39am EDT
Fog, Overcast
Fog, Overcast
 Wind from calm
Wind: Calm
Temperature: 70°F , 21°C
Dew Point: 66°F , 19°C
Humidity: 88%
Barometer: 30.22 inHg , 1023.4 hPa
Summary: Fog
Clouds: Overcast
Visibility: 1/4 mile , 2 km
Cloud details: Overcast 300 ft
2015/05/28 11:39 KAKH 281139Z AUTO 00000KT 1/4SM FG OVC003 21/19 A3022 RMK AO2 T02060189
KRUQ - Salisbury Rowan, North Carolina, USA
Distance from station: N 33mi, 53km
Updated: Thu, 05/28/2015 7:35am EDT
Mist, Overcast
Mist, Overcast
 Wind from calm
Wind: Calm
Temperature: 66°F , 19°C
Dew Point: 66°F , 19°C
Humidity: 100%
Barometer: 30.23 inHg , 1023.7 hPa
Summary: Mist
Clouds: Overcast
Visibility: 1 1/4 miles , 2 km
Cloud details: Overcast 700 ft
2015/05/28 11:35 KRUQ 281135Z AUTO 00000KT 1 1/4SM BR OVC007 19/19 A3023 RMK AO2 T01860186
 
KLKR - Lancaster, South Carolina, USA
Distance from station: SSW 35mi, 57km
Updated: Thu, 05/28/2015 7:35am EDT
Light rain, Clear
Light rain, Clear
 Wind from calm
Wind: Calm
Temperature: 68°F , 20°C
Dew Point: 68°F , 20°C
Humidity: 100%
Barometer: 30.22 inHg , 1023.4 hPa
Summary: Light rain
Clouds: Clear
Visibility: 9 miles , 14 km
2015/05/28 11:35 KLKR 281135Z AUTO 00000KT 9SM -RA CLR 20/20 A3022 RMK AO2
KIPJ - Lincolnton, North Carolina, USA
Distance from station: WNW 39mi, 62km
Updated: Thu, 05/28/2015 7:35am EDT
Fog, Overcast
Fog, Overcast
 Wind from calm
Wind: Calm
Temperature: 66°F , 19°C
Dew Point: 66°F , 19°C
Humidity: 100%
Barometer: 30.22 inHg , 1023.4 hPa
Summary: Fog
Clouds: Overcast
Visibility: 1/4 mile , 2 km
Cloud details: Overcast 200 ft
2015/05/28 11:35 KIPJ 281135Z AUTO 00000KT 1/4SM FG OVC002 19/19 A3022 RMK AO2 T01930189
 
KDCM - Chester Catawba, South Carolina, USA
Distance from station: SW 44mi, 71km
Updated: Thu, 05/28/2015 7:35am EDT
Clear
Clear
 Wind from calm
Wind: Calm
Temperature: 70°F , 21°C
Dew Point: 68°F , 20°C
Humidity: 94%
Barometer: 30.22 inHg , 1023.4 hPa
Clouds: Clear
Visibility: 10 miles , 16 km
2015/05/28 11:35 KDCM 281135Z AUTO 00000KT 10SM CLR 21/20 A3022 RMK AO2
KSVH - Statesville, North Carolina, USA
Distance from station: NNW 44mi, 71km
Updated: Thu, 05/28/2015 7:35am EDT
Mist, Overcast
Mist, Overcast
 Wind from calm
Wind: Calm
Temperature: 68°F , 20°C
Dew Point: 66°F , 19°C
Humidity: 94%
Barometer: 30.22 inHg , 1023.4 hPa
Summary: Mist
Clouds: Overcast
Visibility: 1 3/4 miles , 5 km
Cloud details: Overcast 200 ft
2015/05/28 11:35 KSVH 281135Z AUTO 00000KT 1 3/4SM BR OVC002 20/19 A3022 RMK AO2 T0195019
 
KEXX - Davidson Cty Ap, North Carolina, USA
Distance from station: NNE 45mi, 72km
Updated: Thu, 05/28/2015 7:35am EDT
Mist, Overcast
Mist, Overcast
 Wind from calm
Wind: Calm
Temperature: 68°F , 20°C
Dew Point: 66°F , 19°C
Humidity: 94%
Barometer: 30.22 inHg , 1023.4 hPa
Summary: Mist
Clouds: Overcast
Visibility: 1 1/2 miles , 2 km
Cloud details: Overcast 200 ft
2015/05/28 11:35 KEXX 281135Z AUTO 00000KT 1 1/2SM BR OVC002 20/19 A3022 RMK AO2 T01950192
KCQW - Cheraw, South Carolina, USA
Distance from station: SE 49mi, 78km
Updated: Thu, 05/28/2015 7:35am EDT
Mist, Overcast
Mist, Overcast
 Wind from SSE
Wind: SSE 3 mph , 6 km/h
Temperature: 66°F , 19°C
Dew Point: 66°F , 19°C
Humidity: 100%
Barometer: 30.22 inHg , 1023.4 hPa
Summary: Mist
Clouds: Overcast
Visibility: 3/4 mile , 5 km
Cloud details: Overcast 100 ft
2015/05/28 11:35 KCQW 281135Z AUTO 15003KT 3/4SM BR OVC001 19/19 A3022 RMK AO2